sensor_id;sensor_type;location;lat;lon;timestamp;P1;durP1;ratioP1;P2;durP2;ratioP2
27746;SDS011;15138;51.012;4.692;2023-04-24T00:01:50;25.60;;;11.55;;
27746;SDS011;15138;51.012;4.692;2023-04-24T00:04:19;19.27;;;10.02;;
27746;SDS011;15138;51.012;4.692;2023-04-24T00:06:47;22.70;;;10.35;;
27746;SDS011;15138;51.012;4.692;2023-04-24T00:09:21;21.27;;;11.35;;
27746;SDS011;15138;51.012;4.692;2023-04-24T00:11:50;22.00;;;9.75;;
27746;SDS011;15138;51.012;4.692;2023-04-24T00:14:18;19.88;;;10.02;;
27746;SDS011;15138;51.012;4.692;2023-04-24T00:16:46;24.88;;;11.50;;
27746;SDS011;15138;51.012;4.692;2023-04-24T00:19:14;26.63;;;11.68;;
27746;SDS011;15138;51.012;4.692;2023-04-24T00:21:43;23.23;;;11.48;;
27746;SDS011;15138;51.012;4.692;2023-04-24T00:24:11;21.77;;;11.77;;
27746;SDS011;15138;51.012;4.692;2023-04-24T00:26:40;17.90;;;10.35;;
27746;SDS011;15138;51.012;4.692;2023-04-24T00:29:08;26.75;;;12.27;;
27746;SDS011;15138;51.012;4.692;2023-04-24T00:31:37;23.13;;;12.75;;
27746;SDS011;15138;51.012;4.692;2023-04-24T00:34:05;18.83;;;10.20;;
27746;SDS011;15138;51.012;4.692;2023-04-24T00:36:34;12.05;;;7.35;;
27746;SDS011;15138;51.012;4.692;2023-04-24T00:39:02;29.48;;;12.25;;
27746;SDS011;15138;51.012;4.692;2023-04-24T00:41:30;30.45;;;11.55;;
27746;SDS011;15138;51.012;4.692;2023-04-24T00:44:00;24.02;;;11.27;;
27746;SDS011;15138;51.012;4.692;2023-04-24T00:46:28;24.30;;;10.88;;
27746;SDS011;15138;51.012;4.692;2023-04-24T00:48:56;28.42;;;13.20;;
27746;SDS011;15138;51.012;4.692;2023-04-24T00:51:26;27.52;;;12.30;;
27746;SDS011;15138;51.012;4.692;2023-04-24T00:53:54;22.92;;;10.05;;
27746;SDS011;15138;51.012;4.692;2023-04-24T00:56:23;20.83;;;12.43;;
27746;SDS011;15138;51.012;4.692;2023-04-24T00:58:51;24.05;;;12.40;;
27746;SDS011;15138;51.012;4.692;2023-04-24T01:01:21;25.60;;;11.88;;
27746;SDS011;15138;51.012;4.692;2023-04-24T01:03:50;23.88;;;11.90;;
27746;SDS011;15138;51.012;4.692;2023-04-24T01:06:20;19.27;;;11.80;;
27746;SDS011;15138;51.012;4.692;2023-04-24T01:08:49;17.05;;;10.15;;
27746;SDS011;15138;51.012;4.692;2023-04-24T01:11:17;20.90;;;11.40;;
27746;SDS011;15138;51.012;4.692;2023-04-24T01:13:46;29.55;;;11.85;;
27746;SDS011;15138;51.012;4.692;2023-04-24T01:16:15;25.45;;;10.07;;
27746;SDS011;15138;51.012;4.692;2023-04-24T01:18:45;18.65;;;9.77;;
27746;SDS011;15138;51.012;4.692;2023-04-24T01:21:14;22.50;;;10.55;;
27746;SDS011;15138;51.012;4.692;2023-04-24T01:23:44;22.48;;;11.30;;
27746;SDS011;15138;51.012;4.692;2023-04-24T01:26:13;25.88;;;12.50;;
27746;SDS011;15138;51.012;4.692;2023-04-24T01:28:42;25.95;;;10.80;;
27746;SDS011;15138;51.012;4.692;2023-04-24T01:31:10;18.23;;;10.65;;
27746;SDS011;15138;51.012;4.692;2023-04-24T01:33:38;22.95;;;12.00;;
27746;SDS011;15138;51.012;4.692;2023-04-24T01:36:08;20.02;;;9.38;;
27746;SDS011;15138;51.012;4.692;2023-04-24T01:38:38;25.42;;;11.48;;
27746;SDS011;15138;51.012;4.692;2023-04-24T01:41:07;24.48;;;10.98;;
27746;SDS011;15138;51.012;4.692;2023-04-24T01:43:36;21.27;;;11.43;;
27746;SDS011;15138;51.012;4.692;2023-04-24T01:46:05;18.02;;;9.60;;
27746;SDS011;15138;51.012;4.692;2023-04-24T01:48:33;18.48;;;9.82;;
27746;SDS011;15138;51.012;4.692;2023-04-24T01:51:02;20.08;;;10.48;;
27746;SDS011;15138;51.012;4.692;2023-04-24T01:53:31;20.75;;;11.02;;
27746;SDS011;15138;51.012;4.692;2023-04-24T01:55:59;26.25;;;10.93;;
27746;SDS011;15138;51.012;4.692;2023-04-24T01:58:29;21.65;;;12.15;;
27746;SDS011;15138;51.012;4.692;2023-04-24T02:00:57;20.70;;;10.68;;
27746;SDS011;15138;51.012;4.692;2023-04-24T02:03:26;23.08;;;10.85;;
27746;SDS011;15138;51.012;4.692;2023-04-24T02:05:55;21.90;;;12.15;;
27746;SDS011;15138;51.012;4.692;2023-04-24T02:08:23;23.20;;;11.00;;
27746;SDS011;15138;51.012;4.692;2023-04-24T02:10:51;19.38;;;9.50;;
27746;SDS011;15138;51.012;4.692;2023-04-24T02:13:19;22.63;;;10.35;;
27746;SDS011;15138;51.012;4.692;2023-04-24T02:15:49;17.75;;;10.20;;
27746;SDS011;15138;51.012;4.692;2023-04-24T02:18:17;19.55;;;9.60;;
27746;SDS011;15138;51.012;4.692;2023-04-24T02:20:46;21.45;;;9.25;;
27746;SDS011;15138;51.012;4.692;2023-04-24T02:23:14;15.45;;;9.60;;
27746;SDS011;15138;51.012;4.692;2023-04-24T02:25:42;15.38;;;8.55;;
27746;SDS011;15138;51.012;4.692;2023-04-24T02:28:10;14.88;;;8.13;;
27746;SDS011;15138;51.012;4.692;2023-04-24T02:30:38;13.88;;;8.15;;
27746;SDS011;15138;51.012;4.692;2023-04-24T02:33:08;12.73;;;6.93;;
27746;SDS011;15138;51.012;4.692;2023-04-24T02:35:36;13.77;;;7.45;;
27746;SDS011;15138;51.012;4.692;2023-04-24T02:38:04;13.35;;;7.28;;
27746;SDS011;15138;51.012;4.692;2023-04-24T02:40:33;14.57;;;8.77;;
27746;SDS011;15138;51.012;4.692;2023-04-24T02:43:01;13.25;;;7.53;;
27746;SDS011;15138;51.012;4.692;2023-04-24T02:45:29;16.13;;;8.43;;
27746;SDS011;15138;51.012;4.692;2023-04-24T02:47:57;13.63;;;8.65;;
27746;SDS011;15138;51.012;4.692;2023-04-24T02:50:27;14.18;;;8.23;;
27746;SDS011;15138;51.012;4.692;2023-04-24T02:52:55;16.02;;;8.32;;
27746;SDS011;15138;51.012;4.692;2023-04-24T02:55:23;22.65;;;9.00;;
27746;SDS011;15138;51.012;4.692;2023-04-24T02:57:52;15.68;;;9.77;;
27746;SDS011;15138;51.012;4.692;2023-04-24T03:00:20;16.35;;;9.65;;
27746;SDS011;15138;51.012;4.692;2023-04-24T03:02:48;13.30;;;6.90;;
27746;SDS011;15138;51.012;4.692;2023-04-24T03:05:17;14.32;;;8.85;;
27746;SDS011;15138;51.012;4.692;2023-04-24T03:07:46;13.70;;;8.20;;
27746;SDS011;15138;51.012;4.692;2023-04-24T03:10:15;13.60;;;9.07;;
27746;SDS011;15138;51.012;4.692;2023-04-24T03:12:43;16.95;;;9.63;;
27746;SDS011;15138;51.012;4.692;2023-04-24T03:15:11;16.83;;;9.65;;
27746;SDS011;15138;51.012;4.692;2023-04-24T03:17:39;18.33;;;9.93;;
27746;SDS011;15138;51.012;4.692;2023-04-24T03:20:08;14.10;;;8.95;;
27746;SDS011;15138;51.012;4.692;2023-04-24T03:22:36;14.98;;;7.30;;
27746;SDS011;15138;51.012;4.692;2023-04-24T03:25:06;14.27;;;7.70;;
27746;SDS011;15138;51.012;4.692;2023-04-24T03:27:35;14.27;;;8.23;;
27746;SDS011;15138;51.012;4.692;2023-04-24T03:30:06;19.15;;;9.70;;
27746;SDS011;15138;51.012;4.692;2023-04-24T03:32:34;14.20;;;9.00;;
27746;SDS011;15138;51.012;4.692;2023-04-24T03:35:03;15.98;;;9.15;;
27746;SDS011;15138;51.012;4.692;2023-04-24T03:37:31;13.23;;;8.60;;
27746;SDS011;15138;51.012;4.692;2023-04-24T03:39:59;21.58;;;9.52;;
27746;SDS011;15138;51.012;4.692;2023-04-24T03:42:29;13.38;;;7.38;;
27746;SDS011;15138;51.012;4.692;2023-04-24T03:45:02;16.90;;;9.35;;
27746;SDS011;15138;51.012;4.692;2023-04-24T03:47:30;15.30;;;8.60;;
27746;SDS011;15138;51.012;4.692;2023-04-24T03:49:58;14.88;;;8.63;;
27746;SDS011;15138;51.012;4.692;2023-04-24T03:52:27;11.63;;;7.05;;
27746;SDS011;15138;51.012;4.692;2023-04-24T03:54:55;12.20;;;7.50;;
27746;SDS011;15138;51.012;4.692;2023-04-24T03:57:23;13.57;;;7.40;;
27746;SDS011;15138;51.012;4.692;2023-04-24T03:59:53;13.15;;;7.22;;
27746;SDS011;15138;51.012;4.692;2023-04-24T04:02:21;14.77;;;8.30;;
27746;SDS011;15138;51.012;4.692;2023-04-24T04:04:49;7.85;;;4.45;;
27746;SDS011;15138;51.012;4.692;2023-04-24T04:07:18;10.43;;;5.40;;
27746;SDS011;15138;51.012;4.692;2023-04-24T04:09:46;9.18;;;5.47;;
27746;SDS011;15138;51.012;4.692;2023-04-24T04:12:14;10.10;;;5.38;;
27746;SDS011;15138;51.012;4.692;2023-04-24T04:14:42;10.02;;;6.53;;
27746;SDS011;15138;51.012;4.692;2023-04-24T04:17:11;6.93;;;4.00;;
27746;SDS011;15138;51.012;4.692;2023-04-24T04:19:40;7.10;;;4.68;;
27746;SDS011;15138;51.012;4.692;2023-04-24T04:22:08;7.97;;;5.22;;
27746;SDS011;15138;51.012;4.692;2023-04-24T04:24:36;9.10;;;5.72;;
27746;SDS011;15138;51.012;4.692;2023-04-24T04:27:07;7.20;;;4.43;;
27746;SDS011;15138;51.012;4.692;2023-04-24T04:29:35;9.82;;;5.78;;
27746;SDS011;15138;51.012;4.692;2023-04-24T04:32:03;10.35;;;4.85;;
27746;SDS011;15138;51.012;4.692;2023-04-24T04:34:34;9.68;;;5.55;;
27746;SDS011;15138;51.012;4.692;2023-04-24T04:37:03;7.57;;;4.55;;
27746;SDS011;15138;51.012;4.692;2023-04-24T04:39:32;8.38;;;3.70;;
27746;SDS011;15138;51.012;4.692;2023-04-24T04:42:00;7.22;;;4.97;;
27746;SDS011;15138;51.012;4.692;2023-04-24T04:44:28;6.57;;;3.65;;
27746;SDS011;15138;51.012;4.692;2023-04-24T04:46:57;7.13;;;4.18;;
27746;SDS011;15138;51.012;4.692;2023-04-24T04:49:26;7.78;;;4.22;;
27746;SDS011;15138;51.012;4.692;2023-04-24T04:51:56;8.40;;;3.75;;
27746;SDS011;15138;51.012;4.692;2023-04-24T04:54:24;6.13;;;3.40;;
27746;SDS011;15138;51.012;4.692;2023-04-24T04:56:52;6.30;;;3.80;;
27746;SDS011;15138;51.012;4.692;2023-04-24T04:59:21;6.25;;;4.13;;
27746;SDS011;15138;51.012;4.692;2023-04-24T05:01:49;8.50;;;4.65;;
27746;SDS011;15138;51.012;4.692;2023-04-24T05:04:17;7.55;;;3.58;;
27746;SDS011;15138;51.012;4.692;2023-04-24T05:06:45;7.03;;;3.85;;
27746;SDS011;15138;51.012;4.692;2023-04-24T05:09:15;6.47;;;3.13;;
27746;SDS011;15138;51.012;4.692;2023-04-24T05:11:44;8.05;;;3.67;;
27746;SDS011;15138;51.012;4.692;2023-04-24T05:14:12;8.05;;;5.32;;
27746;SDS011;15138;51.012;4.692;2023-04-24T05:16:44;10.55;;;4.93;;
27746;SDS011;15138;51.012;4.692;2023-04-24T05:19:14;8.95;;;5.28;;
27746;SDS011;15138;51.012;4.692;2023-04-24T05:21:42;9.98;;;5.72;;
27746;SDS011;15138;51.012;4.692;2023-04-24T05:24:10;9.07;;;5.40;;
27746;SDS011;15138;51.012;4.692;2023-04-24T05:26:40;14.18;;;6.35;;
27746;SDS011;15138;51.012;4.692;2023-04-24T05:29:08;6.82;;;3.92;;
27746;SDS011;15138;51.012;4.692;2023-04-24T05:31:36;11.98;;;6.53;;
27746;SDS011;15138;51.012;4.692;2023-04-24T05:34:05;11.07;;;5.32;;
27746;SDS011;15138;51.012;4.692;2023-04-24T05:36:33;11.82;;;6.25;;
27746;SDS011;15138;51.012;4.692;2023-04-24T05:39:01;11.60;;;5.03;;
27746;SDS011;15138;51.012;4.692;2023-04-24T05:41:33;14.25;;;7.03;;
27746;SDS011;15138;51.012;4.692;2023-04-24T05:44:03;14.38;;;8.77;;
27746;SDS011;15138;51.012;4.692;2023-04-24T05:46:31;14.20;;;8.05;;
27746;SDS011;15138;51.012;4.692;2023-04-24T05:48:59;11.35;;;6.38;;
27746;SDS011;15138;51.012;4.692;2023-04-24T05:51:28;12.98;;;6.95;;
27746;SDS011;15138;51.012;4.692;2023-04-24T05:53:56;12.50;;;6.35;;
27746;SDS011;15138;51.012;4.692;2023-04-24T05:56:24;6.55;;;3.75;;
27746;SDS011;15138;51.012;4.692;2023-04-24T05:58:53;7.78;;;4.18;;
27746;SDS011;15138;51.012;4.692;2023-04-24T06:01:23;15.43;;;8.60;;
27746;SDS011;15138;51.012;4.692;2023-04-24T06:03:51;15.90;;;7.20;;
27746;SDS011;15138;51.012;4.692;2023-04-24T06:06:20;11.93;;;5.80;;
27746;SDS011;15138;51.012;4.692;2023-04-24T06:08:48;18.23;;;8.98;;
27746;SDS011;15138;51.012;4.692;2023-04-24T06:11:16;17.17;;;8.27;;
27746;SDS011;15138;51.012;4.692;2023-04-24T06:13:44;19.02;;;8.73;;
27746;SDS011;15138;51.012;4.692;2023-04-24T06:16:13;15.25;;;8.10;;
27746;SDS011;15138;51.012;4.692;2023-04-24T06:18:43;24.52;;;10.80;;
27746;SDS011;15138;51.012;4.692;2023-04-24T06:21:13;14.98;;;8.68;;
27746;SDS011;15138;51.012;4.692;2023-04-24T06:23:42;14.85;;;7.35;;
27746;SDS011;15138;51.012;4.692;2023-04-24T06:26:12;6.13;;;3.38;;
27746;SDS011;15138;51.012;4.692;2023-04-24T06:28:40;16.85;;;7.78;;
27746;SDS011;15138;51.012;4.692;2023-04-24T06:31:09;19.25;;;10.27;;
27746;SDS011;15138;51.012;4.692;2023-04-24T06:33:37;17.77;;;8.38;;
27746;SDS011;15138;51.012;4.692;2023-04-24T06:36:07;16.48;;;8.60;;
27746;SDS011;15138;51.012;4.692;2023-04-24T06:38:36;11.95;;;7.35;;
27746;SDS011;15138;51.012;4.692;2023-04-24T06:41:05;17.60;;;7.70;;
27746;SDS011;15138;51.012;4.692;2023-04-24T06:43:33;13.70;;;7.85;;
27746;SDS011;15138;51.012;4.692;2023-04-24T06:46:02;18.00;;;10.27;;
27746;SDS011;15138;51.012;4.692;2023-04-24T06:48:30;23.45;;;11.40;;
27746;SDS011;15138;51.012;4.692;2023-04-24T06:50:58;13.88;;;7.50;;
27746;SDS011;15138;51.012;4.692;2023-04-24T06:53:28;15.40;;;8.52;;
27746;SDS011;15138;51.012;4.692;2023-04-24T06:55:56;21.10;;;11.32;;
27746;SDS011;15138;51.012;4.692;2023-04-24T06:58:24;13.65;;;6.32;;
27746;SDS011;15138;51.012;4.692;2023-04-24T07:00:52;19.58;;;9.15;;
27746;SDS011;15138;51.012;4.692;2023-04-24T07:03:21;16.17;;;9.20;;
27746;SDS011;15138;51.012;4.692;2023-04-24T07:05:49;20.33;;;9.93;;
27746;SDS011;15138;51.012;4.692;2023-04-24T07:08:17;14.55;;;7.22;;
27746;SDS011;15138;51.012;4.692;2023-04-24T07:10:48;21.90;;;11.10;;
27746;SDS011;15138;51.012;4.692;2023-04-24T07:13:18;20.45;;;8.07;;
27746;SDS011;15138;51.012;4.692;2023-04-24T07:15:46;6.13;;;3.60;;
27746;SDS011;15138;51.012;4.692;2023-04-24T07:18:17;19.30;;;7.78;;
27746;SDS011;15138;51.012;4.692;2023-04-24T07:20:45;20.48;;;10.10;;
27746;SDS011;15138;51.012;4.692;2023-04-24T07:23:13;16.88;;;8.27;;
27746;SDS011;15138;51.012;4.692;2023-04-24T07:25:42;20.77;;;10.65;;
27746;SDS011;15138;51.012;4.692;2023-04-24T07:28:11;20.50;;;9.32;;
27746;SDS011;15138;51.012;4.692;2023-04-24T07:30:40;18.60;;;9.68;;
27746;SDS011;15138;51.012;4.692;2023-04-24T07:33:08;15.68;;;7.55;;
27746;SDS011;15138;51.012;4.692;2023-04-24T07:35:39;13.15;;;5.18;;
27746;SDS011;15138;51.012;4.692;2023-04-24T07:38:07;9.60;;;5.55;;
27746;SDS011;15138;51.012;4.692;2023-04-24T07:40:35;14.77;;;5.63;;
27746;SDS011;15138;51.012;4.692;2023-04-24T07:43:04;14.00;;;6.00;;
27746;SDS011;15138;51.012;4.692;2023-04-24T07:45:34;14.70;;;5.38;;
27746;SDS011;15138;51.012;4.692;2023-04-24T07:48:04;9.93;;;3.47;;
27746;SDS011;15138;51.012;4.692;2023-04-24T07:50:32;17.85;;;5.60;;
27746;SDS011;15138;51.012;4.692;2023-04-24T07:53:01;11.13;;;4.60;;
27746;SDS011;15138;51.012;4.692;2023-04-24T07:55:29;11.70;;;4.70;;
27746;SDS011;15138;51.012;4.692;2023-04-24T07:57:57;10.57;;;4.40;;
27746;SDS011;15138;51.012;4.692;2023-04-24T08:00:25;15.52;;;4.53;;
27746;SDS011;15138;51.012;4.692;2023-04-24T08:02:55;15.32;;;4.22;;
27746;SDS011;15138;51.012;4.692;2023-04-24T08:05:23;10.85;;;4.38;;
27746;SDS011;15138;51.012;4.692;2023-04-24T08:07:53;14.20;;;4.90;;
27746;SDS011;15138;51.012;4.692;2023-04-24T08:10:22;9.45;;;3.58;;
27746;SDS011;15138;51.012;4.692;2023-04-24T08:12:51;12.88;;;4.35;;
27746;SDS011;15138;51.012;4.692;2023-04-24T08:15:19;19.23;;;4.85;;
27746;SDS011;15138;51.012;4.692;2023-04-24T08:17:47;18.73;;;5.93;;
27746;SDS011;15138;51.012;4.692;2023-04-24T08:20:17;12.52;;;4.95;;
27746;SDS011;15138;51.012;4.692;2023-04-24T08:22:45;10.32;;;3.78;;
27746;SDS011;15138;51.012;4.692;2023-04-24T08:25:15;15.60;;;5.13;;
27746;SDS011;15138;51.012;4.692;2023-04-24T08:27:44;18.92;;;5.00;;
27746;SDS011;15138;51.012;4.692;2023-04-24T08:30:12;13.05;;;4.82;;
27746;SDS011;15138;51.012;4.692;2023-04-24T08:32:41;12.13;;;3.58;;
27746;SDS011;15138;51.012;4.692;2023-04-24T08:35:09;15.23;;;5.20;;
27746;SDS011;15138;51.012;4.692;2023-04-24T08:37:39;11.52;;;4.95;;
27746;SDS011;15138;51.012;4.692;2023-04-24T08:40:10;19.92;;;7.78;;
27746;SDS011;15138;51.012;4.692;2023-04-24T08:42:41;22.15;;;8.38;;
27746;SDS011;15138;51.012;4.692;2023-04-24T08:45:11;14.63;;;5.75;;
27746;SDS011;15138;51.012;4.692;2023-04-24T08:47:40;22.13;;;9.40;;
27746;SDS011;15138;51.012;4.692;2023-04-24T08:50:10;21.58;;;8.82;;
27746;SDS011;15138;51.012;4.692;2023-04-24T08:52:40;28.15;;;9.43;;
27746;SDS011;15138;51.012;4.692;2023-04-24T08:55:10;21.52;;;8.30;;
27746;SDS011;15138;51.012;4.692;2023-04-24T08:57:38;11.63;;;4.85;;
27746;SDS011;15138;51.012;4.692;2023-04-24T09:00:07;17.50;;;4.15;;
27746;SDS011;15138;51.012;4.692;2023-04-24T09:02:39;18.23;;;6.65;;
27746;SDS011;15138;51.012;4.692;2023-04-24T09:05:09;22.55;;;7.03;;
27746;SDS011;15138;51.012;4.692;2023-04-24T09:07:38;24.60;;;8.32;;
27746;SDS011;15138;51.012;4.692;2023-04-24T09:10:10;27.35;;;10.45;;
27746;SDS011;15138;51.012;4.692;2023-04-24T09:12:39;22.73;;;7.25;;
27746;SDS011;15138;51.012;4.692;2023-04-24T09:15:08;17.80;;;6.85;;
27746;SDS011;15138;51.012;4.692;2023-04-24T09:17:37;27.90;;;8.05;;
27746;SDS011;15138;51.012;4.692;2023-04-24T09:20:06;23.17;;;7.28;;
27746;SDS011;15138;51.012;4.692;2023-04-24T09:22:35;22.35;;;6.72;;
27746;SDS011;15138;51.012;4.692;2023-04-24T09:25:06;17.48;;;6.28;;
27746;SDS011;15138;51.012;4.692;2023-04-24T09:27:35;13.68;;;4.90;;
27746;SDS011;15138;51.012;4.692;2023-04-24T09:30:04;10.48;;;4.53;;
27746;SDS011;15138;51.012;4.692;2023-04-24T09:32:33;16.15;;;6.65;;
27746;SDS011;15138;51.012;4.692;2023-04-24T09:35:06;20.50;;;7.40;;
27746;SDS011;15138;51.012;4.692;2023-04-24T09:37:38;21.45;;;7.25;;
27746;SDS011;15138;51.012;4.692;2023-04-24T09:40:11;14.13;;;6.45;;
27746;SDS011;15138;51.012;4.692;2023-04-24T09:42:40;24.42;;;6.65;;
27746;SDS011;15138;51.012;4.692;2023-04-24T09:45:11;21.17;;;6.88;;
27746;SDS011;15138;51.012;4.692;2023-04-24T09:47:41;14.00;;;3.83;;
27746;SDS011;15138;51.012;4.692;2023-04-24T09:50:13;18.50;;;7.15;;
27746;SDS011;15138;51.012;4.692;2023-04-24T09:52:44;18.35;;;6.35;;
27746;SDS011;15138;51.012;4.692;2023-04-24T09:55:16;18.45;;;5.93;;
27746;SDS011;15138;51.012;4.692;2023-04-24T09:57:50;16.83;;;5.53;;
27746;SDS011;15138;51.012;4.692;2023-04-24T10:00:21;12.95;;;4.82;;
27746;SDS011;15138;51.012;4.692;2023-04-24T10:02:50;15.80;;;5.15;;
27746;SDS011;15138;51.012;4.692;2023-04-24T10:05:21;13.65;;;4.68;;
27746;SDS011;15138;51.012;4.692;2023-04-24T10:07:51;21.63;;;4.57;;
27746;SDS011;15138;51.012;4.692;2023-04-24T10:10:21;18.05;;;5.45;;
27746;SDS011;15138;51.012;4.692;2023-04-24T10:12:49;12.45;;;5.03;;
27746;SDS011;15138;51.012;4.692;2023-04-24T10:15:19;9.68;;;3.55;;
27746;SDS011;15138;51.012;4.692;2023-04-24T10:17:48;13.43;;;4.80;;
27746;SDS011;15138;51.012;4.692;2023-04-24T10:20:22;14.48;;;4.55;;
27746;SDS011;15138;51.012;4.692;2023-04-24T10:22:53;13.15;;;5.05;;
27746;SDS011;15138;51.012;4.692;2023-04-24T10:25:24;15.90;;;5.35;;
27746;SDS011;15138;51.012;4.692;2023-04-24T10:27:53;11.75;;;5.15;;
27746;SDS011;15138;51.012;4.692;2023-04-24T10:30:23;13.57;;;4.40;;
27746;SDS011;15138;51.012;4.692;2023-04-24T10:32:52;13.30;;;5.45;;
27746;SDS011;15138;51.012;4.692;2023-04-24T10:35:20;12.70;;;4.75;;
27746;SDS011;15138;51.012;4.692;2023-04-24T10:37:54;6.38;;;2.72;;
27746;SDS011;15138;51.012;4.692;2023-04-24T10:40:27;15.20;;;5.85;;
27746;SDS011;15138;51.012;4.692;2023-04-24T10:42:57;9.80;;;4.38;;
27746;SDS011;15138;51.012;4.692;2023-04-24T10:45:26;12.88;;;4.65;;
27746;SDS011;15138;51.012;4.692;2023-04-24T10:47:57;9.52;;;4.47;;
27746;SDS011;15138;51.012;4.692;2023-04-24T10:50:41;11.40;;;3.90;;
27746;SDS011;15138;51.012;4.692;2023-04-24T10:53:12;9.38;;;3.70;;
27746;SDS011;15138;51.012;4.692;2023-04-24T10:55:43;9.95;;;3.30;;
27746;SDS011;15138;51.012;4.692;2023-04-24T10:58:12;10.48;;;4.00;;
27746;SDS011;15138;51.012;4.692;2023-04-24T11:00:43;12.18;;;3.72;;
27746;SDS011;15138;51.012;4.692;2023-04-24T11:03:25;8.02;;;3.00;;
27746;SDS011;15138;51.012;4.692;2023-04-24T11:05:58;8.18;;;3.63;;
27746;SDS011;15138;51.012;4.692;2023-04-24T11:08:28;12.70;;;3.65;;
27746;SDS011;15138;51.012;4.692;2023-04-24T11:10:59;13.43;;;3.80;;
27746;SDS011;15138;51.012;4.692;2023-04-24T11:16:20;8.10;;;2.78;;
27746;SDS011;15138;51.012;4.692;2023-04-24T11:18:50;7.10;;;2.95;;
27746;SDS011;15138;51.012;4.692;2023-04-24T11:21:21;8.15;;;3.10;;
27746;SDS011;15138;51.012;4.692;2023-04-24T11:23:50;7.70;;;2.20;;
27746;SDS011;15138;51.012;4.692;2023-04-24T11:26:21;9.55;;;3.47;;
27746;SDS011;15138;51.012;4.692;2023-04-24T11:28:51;8.35;;;3.22;;
27746;SDS011;15138;51.012;4.692;2023-04-24T11:31:35;10.45;;;3.53;;
27746;SDS011;15138;51.012;4.692;2023-04-24T11:34:11;13.70;;;3.83;;
27746;SDS011;15138;51.012;4.692;2023-04-24T11:36:40;4.95;;;2.15;;
27746;SDS011;15138;51.012;4.692;2023-04-24T11:39:11;10.43;;;3.75;;
27746;SDS011;15138;51.012;4.692;2023-04-24T11:41:41;10.85;;;3.47;;
27746;SDS011;15138;51.012;4.692;2023-04-24T11:44:09;8.57;;;3.63;;
27746;SDS011;15138;51.012;4.692;2023-04-24T11:46:38;10.63;;;3.67;;
27746;SDS011;15138;51.012;4.692;2023-04-24T11:49:07;9.15;;;4.20;;
27746;SDS011;15138;51.012;4.692;2023-04-24T11:51:35;7.32;;;2.90;;
27746;SDS011;15138;51.012;4.692;2023-04-24T11:54:18;8.80;;;4.20;;
27746;SDS011;15138;51.012;4.692;2023-04-24T11:56:48;5.40;;;2.78;;
27746;SDS011;15138;51.012;4.692;2023-04-24T11:59:17;7.90;;;3.67;;
27746;SDS011;15138;51.012;4.692;2023-04-24T12:01:46;7.55;;;3.58;;
27746;SDS011;15138;51.012;4.692;2023-04-24T12:04:15;8.63;;;3.53;;
27746;SDS011;15138;51.012;4.692;2023-04-24T12:06:59;7.32;;;3.40;;
27746;SDS011;15138;51.012;4.692;2023-04-24T12:09:27;7.90;;;3.63;;
27746;SDS011;15138;51.012;4.692;2023-04-24T12:11:57;8.68;;;3.65;;
27746;SDS011;15138;51.012;4.692;2023-04-24T12:14:27;9.60;;;4.10;;
27746;SDS011;15138;51.012;4.692;2023-04-24T12:16:55;11.10;;;3.72;;
27746;SDS011;15138;51.012;4.692;2023-04-24T12:19:24;12.00;;;4.55;;
27746;SDS011;15138;51.012;4.692;2023-04-24T12:21:59;12.45;;;4.18;;
27746;SDS011;15138;51.012;4.692;2023-04-24T12:24:27;10.90;;;3.63;;
27746;SDS011;15138;51.012;4.692;2023-04-24T12:26:58;8.60;;;3.97;;
27746;SDS011;15138;51.012;4.692;2023-04-24T12:29:27;11.35;;;4.80;;
27746;SDS011;15138;51.012;4.692;2023-04-24T12:31:56;12.73;;;4.15;;
27746;SDS011;15138;51.012;4.692;2023-04-24T12:34:25;11.82;;;4.47;;
27746;SDS011;15138;51.012;4.692;2023-04-24T12:36:53;11.35;;;4.47;;
27746;SDS011;15138;51.012;4.692;2023-04-24T12:39:22;12.07;;;5.05;;
27746;SDS011;15138;51.012;4.692;2023-04-24T12:41:57;10.23;;;4.03;;
27746;SDS011;15138;51.012;4.692;2023-04-24T12:44:30;8.02;;;3.80;;
27746;SDS011;15138;51.012;4.692;2023-04-24T12:47:00;9.30;;;3.90;;
27746;SDS011;15138;51.012;4.692;2023-04-24T12:49:29;9.27;;;3.13;;
27746;SDS011;15138;51.012;4.692;2023-04-24T12:51:58;11.85;;;4.28;;
27746;SDS011;15138;51.012;4.692;2023-04-24T12:54:31;9.15;;;3.72;;
27746;SDS011;15138;51.012;4.692;2023-04-24T12:57:01;11.07;;;4.18;;
27746;SDS011;15138;51.012;4.692;2023-04-24T12:59:30;10.25;;;3.58;;
27746;SDS011;15138;51.012;4.692;2023-04-24T13:01:58;12.52;;;4.13;;
27746;SDS011;15138;51.012;4.692;2023-04-24T13:04:27;5.97;;;2.78;;
27746;SDS011;15138;51.012;4.692;2023-04-24T13:06:55;8.70;;;2.95;;
27746;SDS011;15138;51.012;4.692;2023-04-24T13:09:24;9.80;;;3.72;;
27746;SDS011;15138;51.012;4.692;2023-04-24T13:11:52;6.85;;;2.67;;
27746;SDS011;15138;51.012;4.692;2023-04-24T13:14:22;5.55;;;1.83;;
27746;SDS011;15138;51.012;4.692;2023-04-24T13:16:51;9.98;;;3.05;;
27746;SDS011;15138;51.012;4.692;2023-04-24T13:19:19;8.35;;;2.88;;
27746;SDS011;15138;51.012;4.692;2023-04-24T13:21:48;7.22;;;2.40;;
27746;SDS011;15138;51.012;4.692;2023-04-24T13:24:16;6.88;;;2.60;;
27746;SDS011;15138;51.012;4.692;2023-04-24T13:26:45;9.85;;;3.10;;
27746;SDS011;15138;51.012;4.692;2023-04-24T13:29:13;6.55;;;2.42;;
27746;SDS011;15138;51.012;4.692;2023-04-24T13:31:43;7.75;;;3.45;;
27746;SDS011;15138;51.012;4.692;2023-04-24T13:34:12;12.05;;;3.53;;
27746;SDS011;15138;51.012;4.692;2023-04-24T13:36:40;8.82;;;2.88;;
27746;SDS011;15138;51.012;4.692;2023-04-24T13:39:09;6.38;;;2.92;;
27746;SDS011;15138;51.012;4.692;2023-04-24T13:41:38;8.95;;;2.45;;
27746;SDS011;15138;51.012;4.692;2023-04-24T13:44:06;8.23;;;3.10;;
27746;SDS011;15138;51.012;4.692;2023-04-24T13:46:35;6.43;;;2.90;;
27746;SDS011;15138;51.012;4.692;2023-04-24T13:49:04;3.78;;;2.00;;
27746;SDS011;15138;51.012;4.692;2023-04-24T13:51:33;7.15;;;2.20;;
27746;SDS011;15138;51.012;4.692;2023-04-24T13:54:01;8.90;;;2.63;;
27746;SDS011;15138;51.012;4.692;2023-04-24T13:56:29;6.10;;;1.80;;
27746;SDS011;15138;51.012;4.692;2023-04-24T13:58:57;10.40;;;2.38;;
27746;SDS011;15138;51.012;4.692;2023-04-24T14:01:25;6.38;;;2.38;;
27746;SDS011;15138;51.012;4.692;2023-04-24T14:03:54;9.85;;;2.75;;
27746;SDS011;15138;51.012;4.692;2023-04-24T14:06:24;5.13;;;2.35;;
27746;SDS011;15138;51.012;4.692;2023-04-24T14:08:53;5.53;;;2.20;;
27746;SDS011;15138;51.012;4.692;2023-04-24T14:11:21;6.15;;;2.40;;
27746;SDS011;15138;51.012;4.692;2023-04-24T14:13:49;4.97;;;1.83;;
27746;SDS011;15138;51.012;4.692;2023-04-24T14:16:18;5.68;;;2.60;;
27746;SDS011;15138;51.012;4.692;2023-04-24T14:18:46;6.90;;;2.63;;
27746;SDS011;15138;51.012;4.692;2023-04-24T14:21:14;7.57;;;2.97;;
27746;SDS011;15138;51.012;4.692;2023-04-24T14:23:44;5.20;;;2.40;;
27746;SDS011;15138;51.012;4.692;2023-04-24T14:26:12;6.43;;;2.42;;
27746;SDS011;15138;51.012;4.692;2023-04-24T14:28:40;5.13;;;2.20;;
27746;SDS011;15138;51.012;4.692;2023-04-24T14:31:09;5.72;;;2.10;;
27746;SDS011;15138;51.012;4.692;2023-04-24T14:33:37;5.65;;;2.55;;
27746;SDS011;15138;51.012;4.692;2023-04-24T14:36:05;8.43;;;2.50;;
27746;SDS011;15138;51.012;4.692;2023-04-24T14:38:34;6.75;;;2.35;;
27746;SDS011;15138;51.012;4.692;2023-04-24T14:41:03;5.90;;;2.95;;
27746;SDS011;15138;51.012;4.692;2023-04-24T14:43:39;4.40;;;2.25;;
27746;SDS011;15138;51.012;4.692;2023-04-24T14:46:08;4.50;;;1.98;;
27746;SDS011;15138;51.012;4.692;2023-04-24T14:48:36;6.70;;;2.05;;
27746;SDS011;15138;51.012;4.692;2023-04-24T14:51:05;3.00;;;1.45;;